sensor_id;sensor_type;location;lat;lon;timestamp;temperature;humidity
5938;DHT22;2994;51.220;4.412;2023-07-29T00:00:58;22.78;63.42
5938;DHT22;2994;51.220;4.412;2023-07-29T00:03:25;22.69;63.89
5938;DHT22;2994;51.220;4.412;2023-07-29T00:05:50;22.63;64.01
5938;DHT22;2994;51.220;4.412;2023-07-29T00:08:16;22.57;64.30
5938;DHT22;2994;51.220;4.412;2023-07-29T00:10:41;22.62;64.30
5938;DHT22;2994;51.220;4.412;2023-07-29T00:13:07;22.63;64.32
5938;DHT22;2994;51.220;4.412;2023-07-29T00:15:32;22.54;64.56
5938;DHT22;2994;51.220;4.412;2023-07-29T00:17:58;22.52;64.69
5938;DHT22;2994;51.220;4.412;2023-07-29T00:20:24;22.47;64.98
5938;DHT22;2994;51.220;4.412;2023-07-29T00:22:49;22.43;65.14
5938;DHT22;2994;51.220;4.412;2023-07-29T00:25:18;22.50;64.84
5938;DHT22;2994;51.220;4.412;2023-07-29T00:27:43;22.47;64.98
5938;DHT22;2994;51.220;4.412;2023-07-29T00:30:09;22.49;64.82
5938;DHT22;2994;51.220;4.412;2023-07-29T00:32:35;22.40;65.14
5938;DHT22;2994;51.220;4.412;2023-07-29T00:35:01;22.42;65.18
5938;DHT22;2994;51.220;4.412;2023-07-29T00:37:28;22.42;65.36
5938;DHT22;2994;51.220;4.412;2023-07-29T00:39:53;22.38;65.43
5938;DHT22;2994;51.220;4.412;2023-07-29T00:42:18;22.39;65.47
5938;DHT22;2994;51.220;4.412;2023-07-29T00:44:44;22.42;65.29
5938;DHT22;2994;51.220;4.412;2023-07-29T00:47:11;22.35;65.59
5938;DHT22;2994;51.220;4.412;2023-07-29T00:49:38;22.34;65.52
5938;DHT22;2994;51.220;4.412;2023-07-29T00:52:04;22.32;65.67
5938;DHT22;2994;51.220;4.412;2023-07-29T00:54:29;22.23;65.80
5938;DHT22;2994;51.220;4.412;2023-07-29T00:56:55;22.19;66.00
5938;DHT22;2994;51.220;4.412;2023-07-29T00:59:21;22.18;66.11
5938;DHT22;2994;51.220;4.412;2023-07-29T01:01:46;22.22;65.82
5938;DHT22;2994;51.220;4.412;2023-07-29T01:04:11;22.22;65.69
5938;DHT22;2994;51.220;4.412;2023-07-29T01:09:41;22.13;65.65
5938;DHT22;2994;51.220;4.412;2023-07-29T01:17:29;22.12;65.32
5938;DHT22;2994;51.220;4.412;2023-07-29T01:20:04;22.14;65.25
5938;DHT22;2994;51.220;4.412;2023-07-29T01:22:33;22.17;65.07
5938;DHT22;2994;51.220;4.412;2023-07-29T01:24:59;22.17;64.83
5938;DHT22;2994;51.220;4.412;2023-07-29T01:27:25;22.17;64.87
5938;DHT22;2994;51.220;4.412;2023-07-29T01:29:51;22.16;64.70
5938;DHT22;2994;51.220;4.412;2023-07-29T01:38:05;22.11;64.66
5938;DHT22;2994;51.220;4.412;2023-07-29T01:40:32;22.11;64.74
5938;DHT22;2994;51.220;4.412;2023-07-29T01:42:58;22.10;64.60
5938;DHT22;2994;51.220;4.412;2023-07-29T01:45:24;22.09;64.52
5938;DHT22;2994;51.220;4.412;2023-07-29T01:47:53;21.99;64.21
5938;DHT22;2994;51.220;4.412;2023-07-29T01:50:18;21.93;63.92
5938;DHT22;2994;51.220;4.412;2023-07-29T01:52:44;21.89;63.91
5938;DHT22;2994;51.220;4.412;2023-07-29T01:55:09;21.91;63.92
5938;DHT22;2994;51.220;4.412;2023-07-29T01:57:35;21.93;63.88
5938;DHT22;2994;51.220;4.412;2023-07-29T02:00:00;21.92;63.56
5938;DHT22;2994;51.220;4.412;2023-07-29T02:02:26;21.93;63.63
5938;DHT22;2994;51.220;4.412;2023-07-29T02:04:51;21.84;63.37
5938;DHT22;2994;51.220;4.412;2023-07-29T02:07:20;21.89;63.37
5938;DHT22;2994;51.220;4.412;2023-07-29T02:09:45;21.89;63.31
5938;DHT22;2994;51.220;4.412;2023-07-29T02:12:11;21.89;63.27
5938;DHT22;2994;51.220;4.412;2023-07-29T02:14:36;21.84;63.73
5938;DHT22;2994;51.220;4.412;2023-07-29T02:17:02;21.85;63.73
5938;DHT22;2994;51.220;4.412;2023-07-29T02:19:27;21.84;63.84
5938;DHT22;2994;51.220;4.412;2023-07-29T02:21:53;21.83;64.05
5938;DHT22;2994;51.220;4.412;2023-07-29T02:24:18;21.84;63.95
5938;DHT22;2994;51.220;4.412;2023-07-29T02:26:43;21.80;64.24
5938;DHT22;2994;51.220;4.412;2023-07-29T02:29:09;21.78;64.22
5938;DHT22;2994;51.220;4.412;2023-07-29T02:31:34;21.77;64.25
5938;DHT22;2994;51.220;4.412;2023-07-29T02:34:02;21.75;64.40
5938;DHT22;2994;51.220;4.412;2023-07-29T02:36:27;21.73;64.54
5938;DHT22;2994;51.220;4.412;2023-07-29T02:38:52;21.68;64.66
5938;DHT22;2994;51.220;4.412;2023-07-29T02:41:18;21.65;65.09
5938;DHT22;2994;51.220;4.412;2023-07-29T02:43:47;21.67;64.84
5938;DHT22;2994;51.220;4.412;2023-07-29T02:46:13;21.68;64.81
5938;DHT22;2994;51.220;4.412;2023-07-29T02:48:38;21.68;65.02
5938;DHT22;2994;51.220;4.412;2023-07-29T02:51:04;21.63;65.25
5938;DHT22;2994;51.220;4.412;2023-07-29T02:53:29;21.63;65.30
5938;DHT22;2994;51.220;4.412;2023-07-29T02:55:54;21.61;65.28
5938;DHT22;2994;51.220;4.412;2023-07-29T02:58:20;21.61;65.32
5938;DHT22;2994;51.220;4.412;2023-07-29T03:00:45;21.59;65.57
5938;DHT22;2994;51.220;4.412;2023-07-29T03:03:12;21.61;65.41
5938;DHT22;2994;51.220;4.412;2023-07-29T03:05:38;21.55;65.62
5938;DHT22;2994;51.220;4.412;2023-07-29T03:08:03;21.51;65.79
5938;DHT22;2994;51.220;4.412;2023-07-29T03:10:29;21.52;65.75
5938;DHT22;2994;51.220;4.412;2023-07-29T03:12:54;21.52;65.71
5938;DHT22;2994;51.220;4.412;2023-07-29T03:15:23;21.46;65.79
5938;DHT22;2994;51.220;4.412;2023-07-29T03:17:50;21.45;65.91
5938;DHT22;2994;51.220;4.412;2023-07-29T03:22:51;21.47;65.55
5938;DHT22;2994;51.220;4.412;2023-07-29T03:25:16;21.48;65.37
5938;DHT22;2994;51.220;4.412;2023-07-29T03:27:42;21.48;65.30
5938;DHT22;2994;51.220;4.412;2023-07-29T03:30:08;21.47;65.32
5938;DHT22;2994;51.220;4.412;2023-07-29T03:32:33;21.47;65.36
5938;DHT22;2994;51.220;4.412;2023-07-29T03:34:59;21.47;65.28
5938;DHT22;2994;51.220;4.412;2023-07-29T03:37:24;21.48;65.32
5938;DHT22;2994;51.220;4.412;2023-07-29T03:39:50;21.49;65.21
5938;DHT22;2994;51.220;4.412;2023-07-29T03:42:17;21.43;65.40
5938;DHT22;2994;51.220;4.412;2023-07-29T03:44:42;21.43;65.43
5938;DHT22;2994;51.220;4.412;2023-07-29T03:47:08;21.42;65.41
5938;DHT22;2994;51.220;4.412;2023-07-29T03:49:34;21.43;65.41
5938;DHT22;2994;51.220;4.412;2023-07-29T03:51:59;21.40;65.52
5938;DHT22;2994;51.220;4.412;2023-07-29T03:54:25;21.38;65.72
5938;DHT22;2994;51.220;4.412;2023-07-29T03:56:51;21.35;65.69
5938;DHT22;2994;51.220;4.412;2023-07-29T03:59:17;21.35;65.59
5938;DHT22;2994;51.220;4.412;2023-07-29T04:01:42;21.33;65.70
5938;DHT22;2994;51.220;4.412;2023-07-29T04:04:07;21.34;65.70
5938;DHT22;2994;51.220;4.412;2023-07-29T04:06:33;21.28;66.23
5938;DHT22;2994;51.220;4.412;2023-07-29T04:08:58;21.31;65.91
5938;DHT22;2994;51.220;4.412;2023-07-29T04:11:24;21.30;65.88
5938;DHT22;2994;51.220;4.412;2023-07-29T04:13:49;21.31;65.88
5938;DHT22;2994;51.220;4.412;2023-07-29T04:16:15;21.29;65.98
5938;DHT22;2994;51.220;4.412;2023-07-29T04:18:42;21.27;66.04
5938;DHT22;2994;51.220;4.412;2023-07-29T04:21:07;21.28;65.90
5938;DHT22;2994;51.220;4.412;2023-07-29T04:23:33;21.23;66.06
5938;DHT22;2994;51.220;4.412;2023-07-29T04:25:58;21.17;66.03
5938;DHT22;2994;51.220;4.412;2023-07-29T04:28:23;21.15;66.14
5938;DHT22;2994;51.220;4.412;2023-07-29T04:30:49;21.19;65.97
5938;DHT22;2994;51.220;4.412;2023-07-29T04:33:14;21.19;65.98
5938;DHT22;2994;51.220;4.412;2023-07-29T04:35:39;21.21;65.89
5938;DHT22;2994;51.220;4.412;2023-07-29T04:38:05;21.21;65.90
5938;DHT22;2994;51.220;4.412;2023-07-29T04:40:33;21.21;65.87
5938;DHT22;2994;51.220;4.412;2023-07-29T04:43:00;21.22;65.75
5938;DHT22;2994;51.220;4.412;2023-07-29T04:45:29;21.19;65.94
5938;DHT22;2994;51.220;4.412;2023-07-29T04:47:55;21.17;65.94
5938;DHT22;2994;51.220;4.412;2023-07-29T04:50:20;21.16;65.92
5938;DHT22;2994;51.220;4.412;2023-07-29T04:52:46;21.18;65.70
5938;DHT22;2994;51.220;4.412;2023-07-29T04:55:11;21.17;65.85
5938;DHT22;2994;51.220;4.412;2023-07-29T04:57:37;21.14;65.87
5938;DHT22;2994;51.220;4.412;2023-07-29T05:00:03;21.14;65.93
5938;DHT22;2994;51.220;4.412;2023-07-29T05:02:28;21.14;65.72
5938;DHT22;2994;51.220;4.412;2023-07-29T05:04:54;21.17;65.69
5938;DHT22;2994;51.220;4.412;2023-07-29T05:07:19;21.17;65.81
5938;DHT22;2994;51.220;4.412;2023-07-29T05:09:45;21.17;65.66
5938;DHT22;2994;51.220;4.412;2023-07-29T05:12:10;21.15;65.75
5938;DHT22;2994;51.220;4.412;2023-07-29T05:14:35;21.18;65.58
5938;DHT22;2994;51.220;4.412;2023-07-29T05:17:01;21.15;65.66
5938;DHT22;2994;51.220;4.412;2023-07-29T05:19:26;21.19;65.51
5938;DHT22;2994;51.220;4.412;2023-07-29T05:21:52;21.23;65.30
5938;DHT22;2994;51.220;4.412;2023-07-29T05:24:17;21.27;65.15
5938;DHT22;2994;51.220;4.412;2023-07-29T05:26:42;21.28;65.19
5938;DHT22;2994;51.220;4.412;2023-07-29T05:29:08;21.28;65.11
5938;DHT22;2994;51.220;4.412;2023-07-29T05:31:33;21.29;65.06
5938;DHT22;2994;51.220;4.412;2023-07-29T05:33:59;21.27;65.07
5938;DHT22;2994;51.220;4.412;2023-07-29T05:36:24;21.23;65.25
5938;DHT22;2994;51.220;4.412;2023-07-29T05:38:51;21.23;65.23
5938;DHT22;2994;51.220;4.412;2023-07-29T05:41:17;21.25;65.14
5938;DHT22;2994;51.220;4.412;2023-07-29T05:43:42;21.27;65.30
5938;DHT22;2994;51.220;4.412;2023-07-29T05:46:09;21.23;65.30
5938;DHT22;2994;51.220;4.412;2023-07-29T05:48:37;21.25;65.30
5938;DHT22;2994;51.220;4.412;2023-07-29T05:51:03;21.27;65.28
5938;DHT22;2994;51.220;4.412;2023-07-29T05:53:30;21.25;65.27
5938;DHT22;2994;51.220;4.412;2023-07-29T05:55:56;21.25;65.17
5938;DHT22;2994;51.220;4.412;2023-07-29T05:58:21;21.28;65.11
5938;DHT22;2994;51.220;4.412;2023-07-29T06:00:47;21.27;65.24
5938;DHT22;2994;51.220;4.412;2023-07-29T06:03:12;21.30;64.98
5938;DHT22;2994;51.220;4.412;2023-07-29T06:05:38;21.30;64.96
5938;DHT22;2994;51.220;4.412;2023-07-29T06:08:04;21.33;65.20
5938;DHT22;2994;51.220;4.412;2023-07-29T06:10:29;21.38;64.96
5938;DHT22;2994;51.220;4.412;2023-07-29T06:12:55;21.43;64.90
5938;DHT22;2994;51.220;4.412;2023-07-29T06:15:20;21.48;64.63
5938;DHT22;2994;51.220;4.412;2023-07-29T06:17:48;21.53;64.67
5938;DHT22;2994;51.220;4.412;2023-07-29T06:20:13;21.61;64.50
5938;DHT22;2994;51.220;4.412;2023-07-29T06:22:39;21.63;64.27
5938;DHT22;2994;51.220;4.412;2023-07-29T06:25:04;21.67;64.26
5938;DHT22;2994;51.220;4.412;2023-07-29T06:27:30;21.68;64.24
5938;DHT22;2994;51.220;4.412;2023-07-29T06:29:55;21.66;64.40
5938;DHT22;2994;51.220;4.412;2023-07-29T06:32:21;21.68;64.01
5938;DHT22;2994;51.220;4.412;2023-07-29T06:34:46;21.69;64.04
5938;DHT22;2994;51.220;4.412;2023-07-29T06:37:11;21.76;63.89
5938;DHT22;2994;51.220;4.412;2023-07-29T06:39:37;21.78;63.75
5938;DHT22;2994;51.220;4.412;2023-07-29T06:42:02;21.82;63.68
5938;DHT22;2994;51.220;4.412;2023-07-29T06:44:28;21.85;63.45
5938;DHT22;2994;51.220;4.412;2023-07-29T06:46:53;21.88;63.33
5938;DHT22;2994;51.220;4.412;2023-07-29T06:49:19;21.85;63.41
5938;DHT22;2994;51.220;4.412;2023-07-29T06:51:44;21.95;63.34
5938;DHT22;2994;51.220;4.412;2023-07-29T06:54:10;22.03;63.07
5938;DHT22;2994;51.220;4.412;2023-07-29T06:56:35;22.08;63.22
5938;DHT22;2994;51.220;4.412;2023-07-29T06:59:00;21.98;63.61
5938;DHT22;2994;51.220;4.412;2023-07-29T07:01:26;22.05;63.40
5938;DHT22;2994;51.220;4.412;2023-07-29T07:03:51;22.02;63.37
5938;DHT22;2994;51.220;4.412;2023-07-29T07:06:20;22.06;63.32
5938;DHT22;2994;51.220;4.412;2023-07-29T07:08:46;22.05;63.39
5938;DHT22;2994;51.220;4.412;2023-07-29T07:11:11;21.93;63.96
5938;DHT22;2994;51.220;4.412;2023-07-29T07:13:37;22.04;63.79
5938;DHT22;2994;51.220;4.412;2023-07-29T07:16:02;22.02;63.62
5938;DHT22;2994;51.220;4.412;2023-07-29T07:18:28;22.08;63.35
5938;DHT22;2994;51.220;4.412;2023-07-29T07:20:53;22.13;63.23
5938;DHT22;2994;51.220;4.412;2023-07-29T07:23:19;22.10;62.86
5938;DHT22;2994;51.220;4.412;2023-07-29T07:25:45;22.18;62.74
5938;DHT22;2994;51.220;4.412;2023-07-29T07:28:10;22.19;62.74
5938;DHT22;2994;51.220;4.412;2023-07-29T07:30:39;22.23;62.44
5938;DHT22;2994;51.220;4.412;2023-07-29T07:33:05;22.20;62.51
5938;DHT22;2994;51.220;4.412;2023-07-29T07:35:31;22.14;62.55
5938;DHT22;2994;51.220;4.412;2023-07-29T07:37:56;22.26;62.03
5938;DHT22;2994;51.220;4.412;2023-07-29T07:40:21;22.19;62.19
5938;DHT22;2994;51.220;4.412;2023-07-29T07:42:47;22.22;62.04
5938;DHT22;2994;51.220;4.412;2023-07-29T07:45:13;22.33;61.63
5938;DHT22;2994;51.220;4.412;2023-07-29T07:47:38;22.28;61.71
5938;DHT22;2994;51.220;4.412;2023-07-29T07:50:04;22.27;61.61
5938;DHT22;2994;51.220;4.412;2023-07-29T07:52:29;22.33;61.69
5938;DHT22;2994;51.220;4.412;2023-07-29T07:54:55;22.33;61.73
5938;DHT22;2994;51.220;4.412;2023-07-29T07:57:21;22.39;61.51
5938;DHT22;2994;51.220;4.412;2023-07-29T07:59:50;22.35;61.63
5938;DHT22;2994;51.220;4.412;2023-07-29T08:02:17;22.43;61.65
5938;DHT22;2994;51.220;4.412;2023-07-29T08:04:43;22.37;61.79
5938;DHT22;2994;51.220;4.412;2023-07-29T08:07:09;22.57;61.51
5938;DHT22;2994;51.220;4.412;2023-07-29T08:09:34;22.57;61.44
5938;DHT22;2994;51.220;4.412;2023-07-29T08:12:06;22.58;61.25
5938;DHT22;2994;51.220;4.412;2023-07-29T08:14:34;22.66;61.17
5938;DHT22;2994;51.220;4.412;2023-07-29T08:16:59;22.72;61.13
5938;DHT22;2994;51.220;4.412;2023-07-29T08:19:27;22.96;60.82
5938;DHT22;2994;51.220;4.412;2023-07-29T08:21:53;23.02;60.70
5938;DHT22;2994;51.220;4.412;2023-07-29T08:24:24;23.14;60.78
5938;DHT22;2994;51.220;4.412;2023-07-29T08:26:53;23.22;60.61
5938;DHT22;2994;51.220;4.412;2023-07-29T08:29:18;23.22;60.52
5938;DHT22;2994;51.220;4.412;2023-07-29T08:34:44;23.32;60.31
5938;DHT22;2994;51.220;4.412;2023-07-29T08:37:10;23.37;60.18
5938;DHT22;2994;51.220;4.412;2023-07-29T08:39:35;23.36;60.36
5938;DHT22;2994;51.220;4.412;2023-07-29T08:42:03;23.30;60.30
5938;DHT22;2994;51.220;4.412;2023-07-29T08:44:40;23.17;60.83
5938;DHT22;2994;51.220;4.412;2023-07-29T08:47:06;23.46;60.18
5938;DHT22;2994;51.220;4.412;2023-07-29T08:49:32;23.46;60.23
5938;DHT22;2994;51.220;4.412;2023-07-29T08:51:58;23.53;60.12
5938;DHT22;2994;51.220;4.412;2023-07-29T08:54:24;23.51;60.15
5938;DHT22;2994;51.220;4.412;2023-07-29T08:56:50;23.61;59.65
5938;DHT22;2994;51.220;4.412;2023-07-29T08:59:19;23.58;60.13
5938;DHT22;2994;51.220;4.412;2023-07-29T09:01:48;23.66;59.91
5938;DHT22;2994;51.220;4.412;2023-07-29T09:04:14;23.57;59.93
5938;DHT22;2994;51.220;4.412;2023-07-29T09:06:43;23.82;59.09
5938;DHT22;2994;51.220;4.412;2023-07-29T09:09:09;24.02;59.05
5938;DHT22;2994;51.220;4.412;2023-07-29T09:11:35;24.06;59.11
5938;DHT22;2994;51.220;4.412;2023-07-29T09:14:00;24.09;58.77
5938;DHT22;2994;51.220;4.412;2023-07-29T09:16:26;24.20;58.52
5938;DHT22;2994;51.220;4.412;2023-07-29T09:18:52;24.27;58.56
5938;DHT22;2994;51.220;4.412;2023-07-29T09:21:22;24.31;58.26
5938;DHT22;2994;51.220;4.412;2023-07-29T09:23:50;24.30;57.95
5938;DHT22;2994;51.220;4.412;2023-07-29T09:26:22;24.28;58.03
5938;DHT22;2994;51.220;4.412;2023-07-29T09:28:51;24.35;58.10
5938;DHT22;2994;51.220;4.412;2023-07-29T09:31:21;24.43;57.84
5938;DHT22;2994;51.220;4.412;2023-07-29T09:33:47;24.47;58.02
5938;DHT22;2994;51.220;4.412;2023-07-29T09:36:13;24.40;58.21
5938;DHT22;2994;51.220;4.412;2023-07-29T09:38:39;24.35;58.22
5938;DHT22;2994;51.220;4.412;2023-07-29T09:41:05;24.29;58.30
5938;DHT22;2994;51.220;4.412;2023-07-29T09:43:31;24.16;58.64
5938;DHT22;2994;51.220;4.412;2023-07-29T09:46:01;23.95;59.48
5938;DHT22;2994;51.220;4.412;2023-07-29T09:48:27;24.01;59.15
5938;DHT22;2994;51.220;4.412;2023-07-29T09:50:56;23.87;59.12
5938;DHT22;2994;51.220;4.412;2023-07-29T09:53:21;23.82;59.70
5938;DHT22;2994;51.220;4.412;2023-07-29T09:55:48;23.60;60.15
5938;DHT22;2994;51.220;4.412;2023-07-29T09:58:19;23.75;60.22
5938;DHT22;2994;51.220;4.412;2023-07-29T10:00:51;23.69;60.31
5938;DHT22;2994;51.220;4.412;2023-07-29T10:03:19;23.84;60.43
5938;DHT22;2994;51.220;4.412;2023-07-29T10:05:46;23.82;60.34
5938;DHT22;2994;51.220;4.412;2023-07-29T10:08:12;23.81;60.42
5938;DHT22;2994;51.220;4.412;2023-07-29T10:10:41;23.96;60.18
5938;DHT22;2994;51.220;4.412;2023-07-29T10:13:07;24.06;60.03
5938;DHT22;2994;51.220;4.412;2023-07-29T10:15:33;24.20;59.80
5938;DHT22;2994;51.220;4.412;2023-07-29T10:18:00;24.31;59.51
5938;DHT22;2994;51.220;4.412;2023-07-29T10:20:26;24.41;59.11
5938;DHT22;2994;51.220;4.412;2023-07-29T10:22:56;24.41;59.25
5938;DHT22;2994;51.220;4.412;2023-07-29T10:28:06;24.63;58.48
5938;DHT22;2994;51.220;4.412;2023-07-29T10:30:32;24.41;58.87
5938;DHT22;2994;51.220;4.412;2023-07-29T10:33:01;24.59;58.47
5938;DHT22;2994;51.220;4.412;2023-07-29T10:35:27;24.74;57.90
5938;DHT22;2994;51.220;4.412;2023-07-29T10:37:53;24.51;58.32
5938;DHT22;2994;51.220;4.412;2023-07-29T10:40:19;24.54;58.13
5938;DHT22;2994;51.220;4.412;2023-07-29T10:43:03;24.30;58.63
5938;DHT22;2994;51.220;4.412;2023-07-29T10:45:38;24.35;58.41
5938;DHT22;2994;51.220;4.412;2023-07-29T10:48:10;24.32;58.80
5938;DHT22;2994;51.220;4.412;2023-07-29T10:50:36;24.03;59.76
5938;DHT22;2994;51.220;4.412;2023-07-29T10:53:02;24.18;59.94
5938;DHT22;2994;51.220;4.412;2023-07-29T10:55:35;24.18;60.60
5938;DHT22;2994;51.220;4.412;2023-07-29T10:58:15;24.20;60.62
5938;DHT22;2994;51.220;4.412;2023-07-29T11:00:45;24.11;61.10
5938;DHT22;2994;51.220;4.412;2023-07-29T11:03:12;23.87;62.78
5938;DHT22;2994;51.220;4.412;2023-07-29T11:08:28;23.94;64.92
5938;DHT22;2994;51.220;4.412;2023-07-29T11:13:29;23.66;66.07
5938;DHT22;2994;51.220;4.412;2023-07-29T11:15:55;23.47;69.16
5938;DHT22;2994;51.220;4.412;2023-07-29T11:18:26;23.11;72.16
5938;DHT22;2994;51.220;4.412;2023-07-29T11:20:53;22.83;73.83
5938;DHT22;2994;51.220;4.412;2023-07-29T11:23:19;22.58;74.84
5938;DHT22;2994;51.220;4.412;2023-07-29T11:25:45;22.40;75.20
5938;DHT22;2994;51.220;4.412;2023-07-29T11:28:10;22.29;75.67
5938;DHT22;2994;51.220;4.412;2023-07-29T11:30:39;22.22;75.73
5938;DHT22;2994;51.220;4.412;2023-07-29T11:33:04;21.97;78.45
5938;DHT22;2994;51.220;4.412;2023-07-29T11:35:32;22.02;77.60
5938;DHT22;2994;51.220;4.412;2023-07-29T11:37:57;22.03;77.15
5938;DHT22;2994;51.220;4.412;2023-07-29T11:40:23;22.08;76.72
5938;DHT22;2994;51.220;4.412;2023-07-29T11:42:50;22.16;76.54
5938;DHT22;2994;51.220;4.412;2023-07-29T11:45:16;22.33;76.28
5938;DHT22;2994;51.220;4.412;2023-07-29T11:47:42;22.57;75.75
5938;DHT22;2994;51.220;4.412;2023-07-29T11:50:09;22.64;75.83
5938;DHT22;2994;51.220;4.412;2023-07-29T11:52:36;22.93;74.83
5938;DHT22;2994;51.220;4.412;2023-07-29T11:55:03;23.05;74.67
5938;DHT22;2994;51.220;4.412;2023-07-29T11:57:31;23.06;74.84
5938;DHT22;2994;51.220;4.412;2023-07-29T11:59:57;23.02;74.54
5938;DHT22;2994;51.220;4.412;2023-07-29T12:02:23;23.13;75.45
5938;DHT22;2994;51.220;4.412;2023-07-29T12:04:50;23.18;74.44
5938;DHT22;2994;51.220;4.412;2023-07-29T12:07:17;23.00;73.77
5938;DHT22;2994;51.220;4.412;2023-07-29T12:09:43;23.09;73.53
5938;DHT22;2994;51.220;4.412;2023-07-29T12:12:09;23.25;73.12
5938;DHT22;2994;51.220;4.412;2023-07-29T12:14:35;23.17;73.03
5938;DHT22;2994;51.220;4.412;2023-07-29T12:17:05;23.22;72.82
5938;DHT22;2994;51.220;4.412;2023-07-29T12:19:37;23.40;72.91
5938;DHT22;2994;51.220;4.412;2023-07-29T12:22:04;23.65;72.89
5938;DHT22;2994;51.220;4.412;2023-07-29T12:24:31;23.96;72.10
5938;DHT22;2994;51.220;4.412;2023-07-29T12:26:57;24.21;69.85
5938;DHT22;2994;51.220;4.412;2023-07-29T12:29:23;24.16;69.48
5938;DHT22;2994;51.220;4.412;2023-07-29T12:31:49;24.50;67.81
5938;DHT22;2994;51.220;4.412;2023-07-29T12:34:22;24.73;67.58
5938;DHT22;2994;51.220;4.412;2023-07-29T12:36:49;24.89;65.13
5938;DHT22;2994;51.220;4.412;2023-07-29T12:39:26;25.12;63.56
5938;DHT22;2994;51.220;4.412;2023-07-29T12:41:57;25.27;64.38
5938;DHT22;2994;51.220;4.412;2023-07-29T12:44:23;24.95;63.35
5938;DHT22;2994;51.220;4.412;2023-07-29T12:46:49;25.20;62.87
5938;DHT22;2994;51.220;4.412;2023-07-29T12:49:15;25.59;62.19
5938;DHT22;2994;51.220;4.412;2023-07-29T12:51:40;25.68;60.61
5938;DHT22;2994;51.220;4.412;2023-07-29T12:54:07;25.67;59.67
5938;DHT22;2994;51.220;4.412;2023-07-29T12:56:33;26.02;61.30
5938;DHT22;2994;51.220;4.412;2023-07-29T12:59:00;26.19;60.12
5938;DHT22;2994;51.220;4.412;2023-07-29T13:01:26;26.40;59.42
5938;DHT22;2994;51.220;4.412;2023-07-29T13:03:52;26.65;58.64
5938;DHT22;2994;51.220;4.412;2023-07-29T13:06:18;26.81;57.71
5938;DHT22;2994;51.220;4.412;2023-07-29T13:08:44;26.90;57.10
5938;DHT22;2994;51.220;4.412;2023-07-29T13:11:09;26.56;56.58
5938;DHT22;2994;51.220;4.412;2023-07-29T13:13:35;26.51;55.93
5938;DHT22;2994;51.220;4.412;2023-07-29T13:16:00;26.72;55.15
5938;DHT22;2994;51.220;4.412;2023-07-29T13:18:26;27.22;53.49
5938;DHT22;2994;51.220;4.412;2023-07-29T13:20:52;26.83;54.10
5938;DHT22;2994;51.220;4.412;2023-07-29T13:23:17;26.53;54.10
5938;DHT22;2994;51.220;4.412;2023-07-29T13:25:43;26.79;54.37
5938;DHT22;2994;51.220;4.412;2023-07-29T13:28:11;27.28;50.75
5938;DHT22;2994;51.220;4.412;2023-07-29T13:30:41;26.89;53.53
5938;DHT22;2994;51.220;4.412;2023-07-29T13:33:07;26.61;55.42
5938;DHT22;2994;51.220;4.412;2023-07-29T13:35:33;26.48;54.98
5938;DHT22;2994;51.220;4.412;2023-07-29T13:37:58;26.61;56.07
5938;DHT22;2994;51.220;4.412;2023-07-29T13:40:24;26.56;54.87
5938;DHT22;2994;51.220;4.412;2023-07-29T13:42:49;26.47;54.23
5938;DHT22;2994;51.220;4.412;2023-07-29T13:45:15;26.30;52.75
5938;DHT22;2994;51.220;4.412;2023-07-29T13:47:40;26.25;54.97
5938;DHT22;2994;51.220;4.412;2023-07-29T13:50:06;26.21;55.47
5938;DHT22;2994;51.220;4.412;2023-07-29T13:52:33;25.87;55.60
5938;DHT22;2994;51.220;4.412;2023-07-29T13:54:59;25.78;55.71
5938;DHT22;2994;51.220;4.412;2023-07-29T13:57:24;25.89;56.38
5938;DHT22;2994;51.220;4.412;2023-07-29T13:59:49;26.09;56.26
5938;DHT22;2994;51.220;4.412;2023-07-29T14:02:15;26.12;56.68
5938;DHT22;2994;51.220;4.412;2023-07-29T14:04:40;26.07;56.45
5938;DHT22;2994;51.220;4.412;2023-07-29T14:07:06;25.95;54.98
5938;DHT22;2994;51.220;4.412;2023-07-29T14:09:31;25.87;55.30
5938;DHT22;2994;51.220;4.412;2023-07-29T14:11:57;25.89;55.07
5938;DHT22;2994;51.220;4.412;2023-07-29T14:14:23;25.78;55.57
5938;DHT22;2994;51.220;4.412;2023-07-29T14:16:48;25.61;55.95
5938;DHT22;2994;51.220;4.412;2023-07-29T14:19:14;25.61;56.68
5938;DHT22;2994;51.220;4.412;2023-07-29T14:21:40;25.57;56.97
5938;DHT22;2994;51.220;4.412;2023-07-29T14:24:06;25.49;59.20
5938;DHT22;2994;51.220;4.412;2023-07-29T14:26:31;25.30;60.41
5938;DHT22;2994;51.220;4.412;2023-07-29T14:28:57;25.32;60.92
5938;DHT22;2994;51.220;4.412;2023-07-29T14:31:22;25.31;60.94
5938;DHT22;2994;51.220;4.412;2023-07-29T14:33:48;25.29;60.99
5938;DHT22;2994;51.220;4.412;2023-07-29T14:36:15;25.36;60.61
5938;DHT22;2994;51.220;4.412;2023-07-29T14:38:40;25.88;60.31
5938;DHT22;2994;51.220;4.412;2023-07-29T14:41:06;25.84;61.18
5938;DHT22;2994;51.220;4.412;2023-07-29T14:43:31;25.90;60.13
5938;DHT22;2994;51.220;4.412;2023-07-29T14:45:57;26.47;58.93
5938;DHT22;2994;51.220;4.412;2023-07-29T14:48:23;26.64;58.06
5938;DHT22;2994;51.220;4.412;2023-07-29T14:50:49;26.51;58.74
5938;DHT22;2994;51.220;4.412;2023-07-29T14:53:14;26.60;59.25
5938;DHT22;2994;51.220;4.412;2023-07-29T14:55:40;26.95;58.29
5938;DHT22;2994;51.220;4.412;2023-07-29T14:58:05;27.12;57.16
5938;DHT22;2994;51.220;4.412;2023-07-29T15:00:30;27.25;56.04
5938;DHT22;2994;51.220;4.412;2023-07-29T15:02:56;27.23;55.78
5938;DHT22;2994;51.220;4.412;2023-07-29T15:05:21;26.95;57.71
5938;DHT22;2994;51.220;4.412;2023-07-29T15:07:47;26.60;55.73
5938;DHT22;2994;51.220;4.412;2023-07-29T15:10:17;26.36;58.14
5938;DHT22;2994;51.220;4.412;2023-07-29T15:12:44;26.67;57.59
5938;DHT22;2994;51.220;4.412;2023-07-29T15:15:10;27.10;57.67
5938;DHT22;2994;51.220;4.412;2023-07-29T15:17:36;27.70;53.86
5938;DHT22;2994;51.220;4.412;2023-07-29T15:20:02;28.38;52.29
5938;DHT22;2994;51.220;4.412;2023-07-29T15:22:31;31.55;45.19
5938;DHT22;2994;51.220;4.412;2023-07-29T15:24:57;35.27;35.69
5938;DHT22;2994;51.220;4.412;2023-07-29T15:27:25;38.33;30.55
5938;DHT22;2994;51.220;4.412;2023-07-29T15:29:50;34.50;36.55
5938;DHT22;2994;51.220;4.412;2023-07-29T15:32:16;32.42;40.02
5938;DHT22;2994;51.220;4.412;2023-07-29T15:34:41;31.18;43.83
5938;DHT22;2994;51.220;4.412;2023-07-29T15:37:07;30.38;45.03
5938;DHT22;2994;51.220;4.412;2023-07-29T15:39:33;29.96;46.63
5938;DHT22;2994;51.220;4.412;2023-07-29T15:41:58;31.85;43.32
5938;DHT22;2994;51.220;4.412;2023-07-29T15:44:24;36.32;36.85
5938;DHT22;2994;51.220;4.412;2023-07-29T15:46:49;41.74;27.82
5938;DHT22;2994;51.220;4.412;2023-07-29T15:49:22;44.58;23.82
5938;DHT22;2994;51.220;4.412;2023-07-29T15:51:53;48.03;18.23
5938;DHT22;2994;51.220;4.412;2023-07-29T15:54:42;51.40;14.48
5938;DHT22;2994;51.220;4.412;2023-07-29T15:57:21;53.87;12.88
5938;DHT22;2994;51.220;4.412;2023-07-29T16:05:11;46.35;14.26
5938;DHT22;2994;51.220;4.412;2023-07-29T16:07:37;42.53;18.73
5938;DHT22;2994;51.220;4.412;2023-07-29T16:10:02;39.82;22.69
5938;DHT22;2994;51.220;4.412;2023-07-29T16:12:53;37.20;26.59
5938;DHT22;2994;51.220;4.412;2023-07-29T16:18:03;34.03;32.73
5938;DHT22;2994;51.220;4.412;2023-07-29T16:20:32;32.83;35.07
5938;DHT22;2994;51.220;4.412;2023-07-29T16:23:00;32.33;36.59
5938;DHT22;2994;51.220;4.412;2023-07-29T16:25:36;31.58;38.39
5938;DHT22;2994;51.220;4.412;2023-07-29T16:28:17;30.95;39.72
5938;DHT22;2994;51.220;4.412;2023-07-29T16:34:17;29.63;41.36
5938;DHT22;2994;51.220;4.412;2023-07-29T17:00:31;27.10;41.21